sensor_id;sensor_type;location;lat;lon;timestamp;pressure;altitude;pressure_sealevel;temperature;humidity
50484;BME280;36409;52.168;20.878;2022-08-06T00:02:59;100254.91;;;20.36;64.42
50484;BME280;36409;52.168;20.878;2022-08-06T00:05:28;100264.67;;;20.36;64.78
50484;BME280;36409;52.168;20.878;2022-08-06T00:08:07;100268.42;;;20.32;64.82
50484;BME280;36409;52.168;20.878;2022-08-06T00:10:36;100267.66;;;20.30;64.58
50484;BME280;36409;52.168;20.878;2022-08-06T00:13:10;100269.53;;;20.28;64.59
50484;BME280;36409;52.168;20.878;2022-08-06T00:15:42;100267.82;;;20.27;65.05
50484;BME280;36409;52.168;20.878;2022-08-06T00:18:31;100279.45;;;20.24;64.85
50484;BME280;36409;52.168;20.878;2022-08-06T00:20:59;100298.09;;;20.23;65.14
50484;BME280;36409;52.168;20.878;2022-08-06T00:23:28;100264.59;;;20.21;65.31
50484;BME280;36409;52.168;20.878;2022-08-06T00:26:16;100261.27;;;20.18;65.36
50484;BME280;36409;52.168;20.878;2022-08-06T00:28:45;100270.15;;;20.17;65.00
50484;BME280;36409;52.168;20.878;2022-08-06T00:31:15;100274.58;;;20.16;64.83
50484;BME280;36409;52.168;20.878;2022-08-06T00:33:43;100297.58;;;20.16;65.02
50484;BME280;36409;52.168;20.878;2022-08-06T00:36:26;100298.62;;;20.13;65.06
50484;BME280;36409;52.168;20.878;2022-08-06T00:38:59;100284.69;;;20.10;65.24
50484;BME280;36409;52.168;20.878;2022-08-06T00:41:35;100289.38;;;20.04;65.10
50484;BME280;36409;52.168;20.878;2022-08-06T00:44:14;100288.76;;;19.99;65.18
50484;BME280;36409;52.168;20.878;2022-08-06T00:46:59;100287.14;;;19.97;65.47
50484;BME280;36409;52.168;20.878;2022-08-06T00:49:28;100294.41;;;19.93;65.55
50484;BME280;36409;52.168;20.878;2022-08-06T00:52:17;100292.01;;;19.88;65.65
50484;BME280;36409;52.168;20.878;2022-08-06T00:54:47;100279.70;;;19.87;65.71
50484;BME280;36409;52.168;20.878;2022-08-06T00:57:17;100278.89;;;19.85;65.93
50484;BME280;36409;52.168;20.878;2022-08-06T00:59:54;100277.53;;;19.78;65.79
50484;BME280;36409;52.168;20.878;2022-08-06T01:02:22;100276.75;;;19.76;65.62
50484;BME280;36409;52.168;20.878;2022-08-06T01:04:54;100277.69;;;19.75;65.96
50484;BME280;36409;52.168;20.878;2022-08-06T01:07:42;100276.06;;;19.72;66.27
50484;BME280;36409;52.168;20.878;2022-08-06T01:10:20;100278.03;;;19.69;66.20
50484;BME280;36409;52.168;20.878;2022-08-06T01:12:58;100273.67;;;19.68;66.00
50484;BME280;36409;52.168;20.878;2022-08-06T01:15:32;100274.77;;;19.64;66.16
50484;BME280;36409;52.168;20.878;2022-08-06T01:18:25;100277.56;;;19.60;66.03
50484;BME280;36409;52.168;20.878;2022-08-06T01:21:13;100278.44;;;19.61;66.27
50484;BME280;36409;52.168;20.878;2022-08-06T01:24:33;100259.03;;;19.60;66.39
50484;BME280;36409;52.168;20.878;2022-08-06T01:27:31;100249.38;;;19.59;66.19
50484;BME280;36409;52.168;20.878;2022-08-06T01:30:05;100246.92;;;19.56;66.88
50484;BME280;36409;52.168;20.878;2022-08-06T01:32:47;100255.95;;;19.52;66.67
50484;BME280;36409;52.168;20.878;2022-08-06T01:35:19;100262.18;;;19.51;66.68
50484;BME280;36409;52.168;20.878;2022-08-06T01:38:13;100253.46;;;19.49;66.82
50484;BME280;36409;52.168;20.878;2022-08-06T01:40:47;100253.46;;;19.49;67.20
50484;BME280;36409;52.168;20.878;2022-08-06T01:43:19;100243.81;;;19.48;66.83
50484;BME280;36409;52.168;20.878;2022-08-06T01:46:09;100251.84;;;19.47;67.11
50484;BME280;36409;52.168;20.878;2022-08-06T01:48:39;100253.55;;;19.48;67.29
50484;BME280;36409;52.168;20.878;2022-08-06T01:51:09;100257.23;;;19.45;67.18
50484;BME280;36409;52.168;20.878;2022-08-06T01:53:59;100255.58;;;19.42;66.91
50484;BME280;36409;52.168;20.878;2022-08-06T01:56:38;100256.55;;;19.41;67.07
50484;BME280;36409;52.168;20.878;2022-08-06T01:59:30;100256.55;;;19.41;66.93
50484;BME280;36409;52.168;20.878;2022-08-06T02:02:02;100266.16;;;19.42;67.24
50484;BME280;36409;52.168;20.878;2022-08-06T02:04:37;100253.02;;;19.41;67.58
50484;BME280;36409;52.168;20.878;2022-08-06T02:07:10;100249.44;;;19.42;67.61
50484;BME280;36409;52.168;20.878;2022-08-06T02:09:59;100254.73;;;19.42;67.58
50484;BME280;36409;52.168;20.878;2022-08-06T02:12:30;100247.83;;;19.39;67.46
50484;BME280;36409;52.168;20.878;2022-08-06T02:15:04;100253.27;;;19.36;67.62
50484;BME280;36409;52.168;20.878;2022-08-06T02:17:39;100257.72;;;19.36;67.21
50484;BME280;36409;52.168;20.878;2022-08-06T02:20:32;100267.44;;;19.35;67.88
50484;BME280;36409;52.168;20.878;2022-08-06T02:23:07;100261.36;;;19.33;67.59
50484;BME280;36409;52.168;20.878;2022-08-06T02:25:38;100272.97;;;19.31;67.45
50484;BME280;36409;52.168;20.878;2022-08-06T02:28:09;100273.99;;;19.28;67.44
50484;BME280;36409;52.168;20.878;2022-08-06T02:30:54;100271.34;;;19.28;68.02
50484;BME280;36409;52.168;20.878;2022-08-06T02:33:24;100274.98;;;19.25;68.05
50484;BME280;36409;52.168;20.878;2022-08-06T02:36:17;100261.94;;;19.22;67.99
50484;BME280;36409;52.168;20.878;2022-08-06T02:38:58;100265.67;;;19.18;67.93
50484;BME280;36409;52.168;20.878;2022-08-06T02:41:36;100263.11;;;19.17;67.90
50484;BME280;36409;52.168;20.878;2022-08-06T02:44:34;100266.59;;;19.17;68.12
50484;BME280;36409;52.168;20.878;2022-08-06T02:47:07;100273.52;;;19.20;67.99
50484;BME280;36409;52.168;20.878;2022-08-06T02:49:48;100277.18;;;19.17;67.86
50484;BME280;36409;52.168;20.878;2022-08-06T02:52:32;100273.75;;;19.15;68.31
50484;BME280;36409;52.168;20.878;2022-08-06T02:55:16;100275.47;;;19.16;68.61
50484;BME280;36409;52.168;20.878;2022-08-06T02:57:49;100275.47;;;19.16;68.47
50484;BME280;36409;52.168;20.878;2022-08-06T03:00:20;100273.75;;;19.15;68.68
50484;BME280;36409;52.168;20.878;2022-08-06T03:02:59;100277.33;;;19.14;68.65
50484;BME280;36409;52.168;20.878;2022-08-06T03:05:30;100281.78;;;19.13;68.46
50484;BME280;36409;52.168;20.878;2022-08-06T03:08:21;100289.80;;;19.12;68.54
50484;BME280;36409;52.168;20.878;2022-08-06T03:10:55;100281.09;;;19.10;68.96
50484;BME280;36409;52.168;20.878;2022-08-06T03:13:26;100291.66;;;19.10;68.93
50484;BME280;36409;52.168;20.878;2022-08-06T03:16:04;100295.33;;;19.07;68.42
50484;BME280;36409;52.168;20.878;2022-08-06T03:18:52;100298.03;;;19.06;68.46
50484;BME280;36409;52.168;20.878;2022-08-06T03:21:43;100305.19;;;19.04;68.80
50484;BME280;36409;52.168;20.878;2022-08-06T03:24:24;100313.12;;;19.04;68.92
50484;BME280;36409;52.168;20.878;2022-08-06T03:26:58;100310.47;;;19.04;68.67
50484;BME280;36409;52.168;20.878;2022-08-06T03:29:28;100316.88;;;19.00;68.36
50484;BME280;36409;52.168;20.878;2022-08-06T03:31:59;100317.95;;;18.95;68.90
50484;BME280;36409;52.168;20.878;2022-08-06T03:34:48;100314.46;;;18.95;68.70
50484;BME280;36409;52.168;20.878;2022-08-06T03:37:20;100311.00;;;18.93;68.83
50484;BME280;36409;52.168;20.878;2022-08-06T03:40:12;100312.77;;;18.92;68.95
50484;BME280;36409;52.168;20.878;2022-08-06T03:42:41;100318.93;;;18.93;69.06
50484;BME280;36409;52.168;20.878;2022-08-06T03:45:12;100332.05;;;18.96;69.04
50484;BME280;36409;52.168;20.878;2022-08-06T03:48:03;100332.73;;;19.00;69.45
50484;BME280;36409;52.168;20.878;2022-08-06T03:50:38;100326.34;;;19.04;69.27
50484;BME280;36409;52.168;20.878;2022-08-06T03:53:24;100327.12;;;19.06;69.21
50484;BME280;36409;52.168;20.878;2022-08-06T03:55:57;100332.27;;;19.09;69.15
50484;BME280;36409;52.168;20.878;2022-08-06T03:58:28;100334.69;;;19.13;69.49
50484;BME280;36409;52.168;20.878;2022-08-06T04:01:01;100329.24;;;19.17;69.18
50484;BME280;36409;52.168;20.878;2022-08-06T04:03:33;100333.42;;;19.21;69.14
50484;BME280;36409;52.168;20.878;2022-08-06T04:06:08;100337.64;;;19.25;69.16
50484;BME280;36409;52.168;20.878;2022-08-06T04:08:48;100340.83;;;19.32;69.20
50484;BME280;36409;52.168;20.878;2022-08-06T04:11:18;100357.31;;;19.37;69.40
50484;BME280;36409;52.168;20.878;2022-08-06T04:14:08;100355.30;;;19.42;69.53
50484;BME280;36409;52.168;20.878;2022-08-06T04:16:38;100363.92;;;19.45;69.51
50484;BME280;36409;52.168;20.878;2022-08-06T04:19:10;100364.62;;;19.49;69.13
50484;BME280;36409;52.168;20.878;2022-08-06T04:21:43;100370.55;;;19.54;69.32
50484;BME280;36409;52.168;20.878;2022-08-06T04:24:34;100376.44;;;19.59;69.46
50484;BME280;36409;52.168;20.878;2022-08-06T04:27:05;100380.65;;;19.64;69.51
50484;BME280;36409;52.168;20.878;2022-08-06T04:29:38;100376.92;;;19.68;69.33
50484;BME280;36409;52.168;20.878;2022-08-06T04:32:27;100391.69;;;19.72;69.40
50484;BME280;36409;52.168;20.878;2022-08-06T04:35:03;100394.19;;;19.75;69.74
50484;BME280;36409;52.168;20.878;2022-08-06T04:37:52;100399.33;;;19.78;69.52
50484;BME280;36409;52.168;20.878;2022-08-06T04:40:22;100411.55;;;19.81;69.54
50484;BME280;36409;52.168;20.878;2022-08-06T04:43:10;100412.33;;;19.83;69.40
50484;BME280;36409;52.168;20.878;2022-08-06T04:45:41;100409.59;;;19.84;69.85
50484;BME280;36409;52.168;20.878;2022-08-06T04:48:35;100414.77;;;19.87;69.84
50484;BME280;36409;52.168;20.878;2022-08-06T04:51:15;100429.48;;;19.93;69.77
50484;BME280;36409;52.168;20.878;2022-08-06T04:54:07;100431.73;;;20.01;69.98
50484;BME280;36409;52.168;20.878;2022-08-06T04:56:41;100428.67;;;20.09;69.67
50484;BME280;36409;52.168;20.878;2022-08-06T04:59:18;100438.09;;;20.14;69.93
50484;BME280;36409;52.168;20.878;2022-08-06T05:01:47;100435.10;;;20.20;69.95
50484;BME280;36409;52.168;20.878;2022-08-06T05:04:29;100432.98;;;20.27;69.87
50484;BME280;36409;52.168;20.878;2022-08-06T05:07:09;100428.20;;;20.34;70.39
50484;BME280;36409;52.168;20.878;2022-08-06T05:09:41;100433.09;;;20.42;70.02
50484;BME280;36409;52.168;20.878;2022-08-06T05:12:25;100437.02;;;20.50;70.00
50484;BME280;36409;52.168;20.878;2022-08-06T05:15:03;100438.31;;;20.59;70.38
50484;BME280;36409;52.168;20.878;2022-08-06T05:17:40;100438.67;;;20.69;70.05
50484;BME280;36409;52.168;20.878;2022-08-06T05:20:18;100451.19;;;20.83;70.51
50484;BME280;36409;52.168;20.878;2022-08-06T05:22:59;100474.54;;;20.92;70.54
50484;BME280;36409;52.168;20.878;2022-08-06T05:25:32;100489.42;;;20.95;70.25
50484;BME280;36409;52.168;20.878;2022-08-06T05:28:06;100490.39;;;20.94;70.70
50484;BME280;36409;52.168;20.878;2022-08-06T05:30:44;100499.35;;;20.91;70.18
50484;BME280;36409;52.168;20.878;2022-08-06T05:33:23;100512.71;;;20.90;70.53
50484;BME280;36409;52.168;20.878;2022-08-06T05:35:58;100515.52;;;20.87;70.69
50484;BME280;36409;52.168;20.878;2022-08-06T05:38:34;100530.66;;;20.85;70.74
50484;BME280;36409;52.168;20.878;2022-08-06T05:41:07;100532.63;;;20.81;70.63
50484;BME280;36409;52.168;20.878;2022-08-06T05:43:37;100535.44;;;20.78;70.28
50484;BME280;36409;52.168;20.878;2022-08-06T05:46:29;100546.27;;;20.73;70.83
50484;BME280;36409;52.168;20.878;2022-08-06T05:49:04;100544.64;;;20.71;70.82
50484;BME280;36409;52.168;20.878;2022-08-06T05:51:58;100547.55;;;20.66;70.91
50484;BME280;36409;52.168;20.878;2022-08-06T05:54:34;100544.99;;;20.64;70.93
50484;BME280;36409;52.168;20.878;2022-08-06T05:57:10;100552.23;;;20.61;70.50
50484;BME280;36409;52.168;20.878;2022-08-06T05:59:50;100549.77;;;20.58;71.08
50484;BME280;36409;52.168;20.878;2022-08-06T06:02:27;100555.06;;;20.58;71.37
50484;BME280;36409;52.168;20.878;2022-08-06T06:04:59;100557.72;;;20.58;71.00
50484;BME280;36409;52.168;20.878;2022-08-06T06:07:49;100557.77;;;20.56;71.45
50484;BME280;36409;52.168;20.878;2022-08-06T06:10:41;100569.31;;;20.55;71.52
50484;BME280;36409;52.168;20.878;2022-08-06T06:13:22;100572.94;;;20.54;71.11
50484;BME280;36409;52.168;20.878;2022-08-06T06:16:09;100575.49;;;20.56;71.58
50484;BME280;36409;52.168;20.878;2022-08-06T06:18:59;100575.09;;;20.63;71.75
50484;BME280;36409;52.168;20.878;2022-08-06T06:21:46;100578.28;;;20.70;71.67
50484;BME280;36409;52.168;20.878;2022-08-06T06:24:22;100588.70;;;20.73;71.11
50484;BME280;36409;52.168;20.878;2022-08-06T06:26:59;100598.41;;;20.74;71.64
50484;BME280;36409;52.168;20.878;2022-08-06T06:29:38;100596.53;;;20.76;71.38
50484;BME280;36409;52.168;20.878;2022-08-06T06:32:40;100609.64;;;20.79;71.74
50484;BME280;36409;52.168;20.878;2022-08-06T06:35:19;100607.77;;;20.81;71.76
50484;BME280;36409;52.168;20.878;2022-08-06T06:38:00;100614.60;;;20.86;71.56
50484;BME280;36409;52.168;20.878;2022-08-06T06:40:41;100614.35;;;20.90;71.92
50484;BME280;36409;52.168;20.878;2022-08-06T06:43:33;100609.77;;;20.94;71.54
50484;BME280;36409;52.168;20.878;2022-08-06T06:46:18;100620.03;;;21.00;71.61
50484;BME280;36409;52.168;20.878;2022-08-06T06:49:14;100616.69;;;20.96;71.60
50484;BME280;36409;52.168;20.878;2022-08-06T06:52:08;100620.69;;;20.88;71.58
50484;BME280;36409;52.168;20.878;2022-08-06T06:54:44;100633.51;;;20.79;70.95
50484;BME280;36409;52.168;20.878;2022-08-06T06:57:35;100634.21;;;20.65;71.23
50484;BME280;36409;52.168;20.878;2022-08-06T07:00:14;100636.38;;;20.57;71.46
50484;BME280;36409;52.168;20.878;2022-08-06T07:03:04;100635.00;;;20.50;71.48
50484;BME280;36409;52.168;20.878;2022-08-06T07:05:40;100634.45;;;20.43;72.01
50484;BME280;36409;52.168;20.878;2022-08-06T07:08:34;100637.34;;;20.39;71.68
50484;BME280;36409;52.168;20.878;2022-08-06T07:11:10;100641.25;;;20.31;71.88
50484;BME280;36409;52.168;20.878;2022-08-06T07:13:50;100639.77;;;20.26;71.93
50484;BME280;36409;52.168;20.878;2022-08-06T07:16:27;100639.12;;;20.20;71.94
50484;BME280;36409;52.168;20.878;2022-08-06T07:19:05;100642.85;;;20.16;72.35
50484;BME280;36409;52.168;20.878;2022-08-06T07:21:40;100648.38;;;20.12;72.29
50484;BME280;36409;52.168;20.878;2022-08-06T07:24:22;100648.80;;;20.04;72.52
50484;BME280;36409;52.168;20.878;2022-08-06T07:27:09;100659.58;;;19.99;72.37
50484;BME280;36409;52.168;20.878;2022-08-06T07:29:43;100662.41;;;19.96;72.52
50484;BME280;36409;52.168;20.878;2022-08-06T07:32:28;100667.84;;;19.93;72.61
50484;BME280;36409;52.168;20.878;2022-08-06T07:35:00;100657.39;;;19.90;72.78
50484;BME280;36409;52.168;20.878;2022-08-06T07:37:44;100667.28;;;19.86;72.91
50484;BME280;36409;52.168;20.878;2022-08-06T07:40:23;100671.76;;;19.84;72.91
50484;BME280;36409;52.168;20.878;2022-08-06T07:43:02;100668.55;;;19.78;72.74
50484;BME280;36409;52.168;20.878;2022-08-06T07:45:59;100661.05;;;19.68;72.93
50484;BME280;36409;52.168;20.878;2022-08-06T07:48:32;100680.73;;;19.63;72.82
50484;BME280;36409;52.168;20.878;2022-08-06T07:51:06;100678.30;;;19.58;73.31
50484;BME280;36409;52.168;20.878;2022-08-06T07:53:38;100695.20;;;19.55;73.51
50484;BME280;36409;52.168;20.878;2022-08-06T07:56:26;100695.33;;;19.52;72.83
50484;BME280;36409;52.168;20.878;2022-08-06T07:58:59;100699.91;;;19.49;74.05
50484;BME280;36409;52.168;20.878;2022-08-06T08:01:32;100702.64;;;19.47;73.54
50484;BME280;36409;52.168;20.878;2022-08-06T08:04:07;100699.25;;;19.43;73.75
50484;BME280;36409;52.168;20.878;2022-08-06T08:07:15;100712.70;;;19.39;73.70
50484;BME280;36409;52.168;20.878;2022-08-06T08:09:45;100721.56;;;19.38;73.74
50484;BME280;36409;52.168;20.878;2022-08-06T08:12:32;100720.72;;;19.37;73.99
50484;BME280;36409;52.168;20.878;2022-08-06T08:15:06;100720.64;;;19.39;74.24
50484;BME280;36409;52.168;20.878;2022-08-06T08:17:47;100726.80;;;19.39;73.71
50484;BME280;36409;52.168;20.878;2022-08-06T08:20:28;100743.48;;;19.41;73.99
50484;BME280;36409;52.168;20.878;2022-08-06T08:23:05;100754.11;;;19.40;74.15
50484;BME280;36409;52.168;20.878;2022-08-06T08:25:36;100754.24;;;19.37;74.29
50484;BME280;36409;52.168;20.878;2022-08-06T08:28:12;100757.98;;;19.33;73.99
50484;BME280;36409;52.168;20.878;2022-08-06T08:30:45;100765.13;;;19.31;74.28
50484;BME280;36409;52.168;20.878;2022-08-06T08:33:17;100782.84;;;19.28;74.65
50484;BME280;36409;52.168;20.878;2022-08-06T08:35:48;100801.45;;;19.27;74.78
50484;BME280;36409;52.168;20.878;2022-08-06T08:38:30;100835.77;;;19.28;74.60
50484;BME280;36409;52.168;20.878;2022-08-06T08:41:01;100858.66;;;19.29;74.87
50484;BME280;36409;52.168;20.878;2022-08-06T08:43:40;100862.19;;;19.30;74.76
50484;BME280;36409;52.168;20.878;2022-08-06T08:46:27;100853.37;;;19.29;74.37
50484;BME280;36409;52.168;20.878;2022-08-06T08:49:02;100858.94;;;19.23;74.56
50484;BME280;36409;52.168;20.878;2022-08-06T08:51:36;100852.84;;;19.21;75.00
50484;BME280;36409;52.168;20.878;2022-08-06T08:54:15;100868.92;;;19.17;74.81
50484;BME280;36409;52.168;20.878;2022-08-06T08:56:47;100866.47;;;19.12;74.95
50484;BME280;36409;52.168;20.878;2022-08-06T08:59:40;100869.31;;;19.07;74.73
50484;BME280;36409;52.168;20.878;2022-08-06T09:02:29;100866.06;;;19.01;74.68
50484;BME280;36409;52.168;20.878;2022-08-06T09:04:59;100857.32;;;18.98;74.79
50484;BME280;36409;52.168;20.878;2022-08-06T09:07:28;100858.16;;;18.99;75.02
50484;BME280;36409;52.168;20.878;2022-08-06T09:10:07;100850.23;;;18.99;75.26
50484;BME280;36409;52.168;20.878;2022-08-06T09:12:44;100859.97;;;18.98;74.82
50484;BME280;36409;52.168;20.878;2022-08-06T09:15:16;100863.53;;;18.97;75.04
50484;BME280;36409;52.168;20.878;2022-08-06T09:17:47;100880.25;;;18.98;75.55
50484;BME280;36409;52.168;20.878;2022-08-06T09:20:37;100881.13;;;18.98;75.85
50484;BME280;36409;52.168;20.878;2022-08-06T09:23:14;100879.40;;;18.97;75.67
50484;BME280;36409;52.168;20.878;2022-08-06T09:25:45;100880.39;;;18.95;75.31
50484;BME280;36409;52.168;20.878;2022-08-06T09:28:34;100897.53;;;18.85;75.42
50484;BME280;36409;52.168;20.878;2022-08-06T09:31:05;100899.94;;;18.68;75.40
50484;BME280;36409;52.168;20.878;2022-08-06T09:34:02;100915.50;;;18.52;74.98
50484;BME280;36409;52.168;20.878;2022-08-06T09:36:51;100916.12;;;18.37;75.06
50484;BME280;36409;52.168;20.878;2022-08-06T09:39:33;100915.55;;;18.29;75.22
50484;BME280;36409;52.168;20.878;2022-08-06T09:42:40;100926.41;;;18.21;75.18
50484;BME280;36409;52.168;20.878;2022-08-06T09:45:13;100926.75;;;18.12;75.36
50484;BME280;36409;52.168;20.878;2022-08-06T09:47:43;100935.80;;;18.04;75.17
50484;BME280;36409;52.168;20.878;2022-08-06T09:50:40;100928.11;;;17.98;75.43
50484;BME280;36409;52.168;20.878;2022-08-06T09:53:13;100936.88;;;17.99;75.56
50484;BME280;36409;52.168;20.878;2022-08-06T09:55:46;100938.71;;;17.97;75.36
50484;BME280;36409;52.168;20.878;2022-08-06T09:58:26;100947.69;;;17.91;75.41
50484;BME280;36409;52.168;20.878;2022-08-06T10:00:55;100951.41;;;17.85;75.45
50484;BME280;36409;52.168;20.878;2022-08-06T10:03:25;100942.73;;;17.82;75.53
50484;BME280;36409;52.168;20.878;2022-08-06T10:06:15;100937.45;;;17.82;75.58
50484;BME280;36409;52.168;20.878;2022-08-06T10:08:45;100933.97;;;17.81;75.65
50484;BME280;36409;52.168;20.878;2022-08-06T10:11:35;100939.15;;;17.84;75.76
50484;BME280;36409;52.168;20.878;2022-08-06T10:14:26;100946.94;;;17.87;75.70
50484;BME280;36409;52.168;20.878;2022-08-06T10:17:09;100945.17;;;17.88;75.88
50484;BME280;36409;52.168;20.878;2022-08-06T10:19:39;100950.55;;;17.85;75.54
50484;BME280;36409;52.168;20.878;2022-08-06T10:22:20;100956.84;;;17.81;75.64
50484;BME280;36409;52.168;20.878;2022-08-06T10:24:55;100966.73;;;17.75;75.73
50484;BME280;36409;52.168;20.878;2022-08-06T10:27:30;100972.92;;;17.74;76.08
50484;BME280;36409;52.168;20.878;2022-08-06T10:30:09;100975.75;;;17.68;75.76
50484;BME280;36409;52.168;20.878;2022-08-06T10:32:43;100977.77;;;17.62;75.70
50484;BME280;36409;52.168;20.878;2022-08-06T10:35:17;100992.81;;;17.58;75.81
50484;BME280;36409;52.168;20.878;2022-08-06T10:37:55;101003.66;;;17.50;75.78
50484;BME280;36409;52.168;20.878;2022-08-06T10:40:34;101001.20;;;17.44;75.75
50484;BME280;36409;52.168;20.878;2022-08-06T10:43:06;101006.63;;;17.39;75.60
50484;BME280;36409;52.168;20.878;2022-08-06T10:45:41;101002.27;;;17.38;75.77
50484;BME280;36409;52.168;20.878;2022-08-06T10:48:17;101010.24;;;17.37;75.86
50484;BME280;36409;52.168;20.878;2022-08-06T10:51:08;101012.06;;;17.35;76.05
50484;BME280;36409;52.168;20.878;2022-08-06T10:53:39;101013.81;;;17.34;75.82
50484;BME280;36409;52.168;20.878;2022-08-06T10:56:29;101023.46;;;17.35;76.01
50484;BME280;36409;52.168;20.878;2022-08-06T10:59:07;101024.49;;;17.31;75.71
50484;BME280;36409;52.168;20.878;2022-08-06T11:01:49;101025.55;;;17.25;75.90
50484;BME280;36409;52.168;20.878;2022-08-06T11:04:36;101015.94;;;17.23;76.10
50484;BME280;36409;52.168;20.878;2022-08-06T11:07:32;101014.24;;;17.22;75.92
50484;BME280;36409;52.168;20.878;2022-08-06T11:10:37;101022.23;;;17.19;75.83
50484;BME280;36409;52.168;20.878;2022-08-06T11:13:15;101027.66;;;17.14;76.13
50484;BME280;36409;52.168;20.878;2022-08-06T11:15:46;101010.96;;;17.13;76.12
50484;BME280;36409;52.168;20.878;2022-08-06T11:18:17;101005.66;;;17.15;75.89
50484;BME280;36409;52.168;20.878;2022-08-06T11:20:55;101005.66;;;17.15;75.97
50484;BME280;36409;52.168;20.878;2022-08-06T11:23:31;101003.87;;;17.16;76.01
50484;BME280;36409;52.168;20.878;2022-08-06T11:26:35;101009.14;;;17.16;76.22
50484;BME280;36409;52.168;20.878;2022-08-06T11:29:12;100999.59;;;17.11;75.82
50484;BME280;36409;52.168;20.878;2022-08-06T11:31:45;101021.71;;;17.07;75.96
50484;BME280;36409;52.168;20.878;2022-08-06T11:34:41;101036.77;;;17.04;76.09
50484;BME280;36409;52.168;20.878;2022-08-06T11:37:47;101044.00;;;16.97;76.32
50484;BME280;36409;52.168;20.878;2022-08-06T11:40:56;101046.64;;;16.97;76.09
50484;BME280;36409;52.168;20.878;2022-08-06T11:43:46;101038.73;;;16.97;76.33
50484;BME280;36409;52.168;20.878;2022-08-06T11:46:34;101045.87;;;16.92;76.01
50484;BME280;36409;52.168;20.878;2022-08-06T11:49:19;101034.41;;;16.93;75.84
50484;BME280;36409;52.168;20.878;2022-08-06T11:51:51;101038.81;;;16.94;76.41
50484;BME280;36409;52.168;20.878;2022-08-06T11:54:36;101037.03;;;16.94;76.08
50484;BME280;36409;52.168;20.878;2022-08-06T11:57:26;101044.00;;;16.97;76.49
50484;BME280;36409;52.168;20.878;2022-08-06T12:00:21;101048.39;;;16.96;76.42
50484;BME280;36409;52.168;20.878;2022-08-06T12:02:55;101050.10;;;16.99;76.24
50484;BME280;36409;52.168;20.878;2022-08-06T12:05:35;101054.49;;;16.98;76.42
50484;BME280;36409;52.168;20.878;2022-08-06T12:08:15;101057.19;;;16.97;76.27
50484;BME280;36409;52.168;20.878;2022-08-06T12:11:25;101054.55;;;16.97;76.49
50484;BME280;36409;52.168;20.878;2022-08-06T12:13:56;101058.86;;;17.00;76.12
50484;BME280;36409;52.168;20.878;2022-08-06T12:16:45;101054.49;;;16.98;76.65
50484;BME280;36409;52.168;20.878;2022-08-06T12:19:22;101057.07;;;17.00;76.84
50484;BME280;36409;52.168;20.878;2022-08-06T12:21:54;101071.91;;;17.04;76.44
50484;BME280;36409;52.168;20.878;2022-08-06T12:24:25;101071.82;;;17.07;76.32
50484;BME280;36409;52.168;20.878;2022-08-06T12:27:15;101070.09;;;17.06;76.86
50484;BME280;36409;52.168;20.878;2022-08-06T12:29:56;101069.12;;;17.09;76.73
50484;BME280;36409;52.168;20.878;2022-08-06T12:32:29;101079.59;;;17.12;76.31
50484;BME280;36409;52.168;20.878;2022-08-06T12:35:00;101077.77;;;17.14;76.72
50484;BME280;36409;52.168;20.878;2022-08-06T12:37:38;101076.81;;;17.17;76.61
50484;BME280;36409;52.168;20.878;2022-08-06T12:40:17;101067.75;;;17.25;76.62
50484;BME280;36409;52.168;20.878;2022-08-06T12:43:08;101070.05;;;17.36;76.47
50484;BME280;36409;52.168;20.878;2022-08-06T12:45:43;101075.14;;;17.42;76.34
50484;BME280;36409;52.168;20.878;2022-08-06T12:48:36;101078.55;;;17.46;76.45
50484;BME280;36409;52.168;20.878;2022-08-06T12:51:09;101066.02;;;17.53;76.55
50484;BME280;36409;52.168;20.878;2022-08-06T12:53:51;101069.93;;;17.68;76.45
50484;BME280;36409;52.168;20.878;2022-08-06T12:56:22;101080.15;;;17.79;76.58
50484;BME280;36409;52.168;20.878;2022-08-06T12:59:02;101078.95;;;17.87;76.50
50484;BME280;36409;52.168;20.878;2022-08-06T13:01:35;101083.95;;;17.97;76.57
50484;BME280;36409;52.168;20.878;2022-08-06T13:04:25;101088.36;;;17.96;76.10
50484;BME280;36409;52.168;20.878;2022-08-06T13:07:00;101089.20;;;17.98;76.14
50484;BME280;36409;52.168;20.878;2022-08-06T13:09:37;101081.97;;;18.03;76.31
50484;BME280;36409;52.168;20.878;2022-08-06T13:12:25;101080.38;;;18.25;76.32
50484;BME280;36409;52.168;20.878;2022-08-06T13:15:15;101079.34;;;18.54;75.88
50484;BME280;36409;52.168;20.878;2022-08-06T13:18:06;101080.20;;;18.78;76.19
50484;BME280;36409;52.168;20.878;2022-08-06T13:20:56;101075.94;;;19.00;75.71
50484;BME280;36409;52.168;20.878;2022-08-06T13:23:32;101071.94;;;19.11;75.85
50484;BME280;36409;52.168;20.878;2022-08-06T13:26:16;101076.23;;;19.14;75.46
50484;BME280;36409;52.168;20.878;2022-08-06T13:29:08;101081.53;;;19.14;74.93
50484;BME280;36409;52.168;20.878;2022-08-06T13:32:02;101077.30;;;19.10;74.98
50484;BME280;36409;52.168;20.878;2022-08-06T13:34:53;101093.17;;;19.10;74.88
50484;BME280;36409;52.168;20.878;2022-08-06T13:37:45;101079.66;;;19.18;74.72
50484;BME280;36409;52.168;20.878;2022-08-06T13:40:42;101080.39;;;19.21;74.52
50484;BME280;36409;52.168;20.878;2022-08-06T13:43:14;101081.94;;;19.27;74.58
50484;BME280;36409;52.168;20.878;2022-08-06T13:46:09;101090.72;;;19.27;74.37
50484;BME280;36409;52.168;20.878;2022-08-06T13:48:49;101092.52;;;19.27;74.29